Time;durP1;ratioP1;P1;durP2;ratioP2;P2;SDS_P1;SDS_P2;PMS_P1;PMS_P2;Temp;Humidity;BMP_temperature;BMP_pressure;BME280_temperature;BME280_humidity;BME280_pressure;Samples;Min_cycle;Max_cycle;Signal;HPM_P1;HPM_P2
2022/04/12 00:01:04;;;;;;;9.75;5.40;;;10.00;38.90;;;;;;5145186;27;20027;-55
2022/04/12 00:03:30;;;;;;;6.57;5.25;;;10.00;39.00;;;;;;5127891;27;20359;-48
2022/04/12 00:05:56;;;;;;;8.35;5.60;;;9.90;39.10;;;;;;5133816;27;20034;-50
2022/04/12 00:08:24;;;;;;;8.57;5.00;;;9.90;39.10;;;;;;5148471;27;20031;-57
2022/04/12 00:10:51;;;;;;;9.77;5.40;;;9.90;39.30;;;;;;5120461;27;20030;-54
2022/04/12 00:13:23;;;;;;;8.93;6.05;;;9.90;39.40;;;;;;5152487;27;20023;-56
2022/04/12 00:15:49;;;;;;;9.55;5.53;;;9.80;39.50;;;;;;5133728;27;20056;-52
2022/04/12 00:21:04;;;;;;;11.15;5.93;;;9.80;39.40;;;;;;5145799;27;20053;-53
2022/04/12 00:23:30;;;;;;;10.57;5.93;;;9.80;39.60;;;;;;5146406;27;20047;-51
2022/04/12 00:25:58;;;;;;;9.95;6.35;;;9.80;39.70;;;;;;5135255;27;20042;-54
2022/04/12 00:28:24;;;;;;;10.95;6.10;;;9.70;39.70;;;;;;5154776;27;20095;-51
2022/04/12 00:30:51;;;;;;;8.35;5.88;;;9.80;39.80;;;;;;5152786;27;20164;-52
2022/04/12 00:33:17;;;;;;;11.52;6.68;;;9.80;39.80;;;;;;5150972;27;20023;-53
2022/04/12 00:35:44;;;;;;;12.00;5.75;;;9.80;39.80;;;;;;5151157;27;20026;-52
2022/04/12 00:38:17;;;;;;;10.50;6.18;;;9.80;39.80;;;;;;5129688;27;20091;-50
2022/04/12 00:40:45;;;;;;;;;;;9.80;39.90;;;;;;5140556;27;20043;-53
2022/04/12 00:43:12;;;;;;;9.48;6.13;;;9.80;40.10;;;;;;5156102;27;20258;-50
2022/04/12 00:45:38;;;;;;;10.85;6.03;;;9.80;40.00;;;;;;5132939;27;20408;-55
2022/04/12 00:48:05;;;;;;;7.97;5.65;;;9.80;40.00;;;;;;5155787;27;20025;-55
2022/04/12 00:50:31;;;;;;;12.07;6.63;;;9.80;40.00;;;;;;5142209;27;20118;-54
2022/04/12 00:52:59;;;;;;;9.50;6.13;;;9.70;40.20;;;;;;5145290;27;20058;-54
2022/04/12 00:55:26;;;;;;;10.20;6.47;;;9.60;40.50;;;;;;5151874;27;20031;-53
2022/04/12 00:57:56;;;;;;;13.77;7.53;;;9.60;40.70;;;;;;5154787;27;20027;-54
2022/04/12 01:00:26;;;;;;;11.40;6.22;;;9.50;40.80;;;;;;5154146;27;20023;-54
2022/04/12 01:02:52;;;;;;;8.63;5.88;;;9.40;40.90;;;;;;5156141;27;20038;-48
2022/04/12 01:05:17;;;;;;;10.90;5.90;;;9.40;41.20;;;;;;5155654;27;20023;-50
2022/04/12 01:07:44;;;;;;;11.48;6.38;;;9.20;41.30;;;;;;5154913;27;20093;-52
2022/04/12 01:10:10;;;;;;;9.88;5.68;;;9.30;41.40;;;;;;5134374;27;20084;-52
2022/04/12 01:12:38;;;;;;;10.63;6.25;;;9.30;41.40;;;;;;5134988;27;20031;-53
2022/04/12 01:15:24;;;;;;;12.73;6.13;;;9.30;41.30;;;;;;5151198;27;20019;-52
2022/04/12 01:17:50;;;;;;;12.35;6.40;;;9.40;41.40;;;;;;5134724;27;20111;-49
2022/04/12 01:20:25;;;;;;;12.68;6.85;;;9.30;41.60;;;;;;5155558;27;20027;-47
2022/04/12 01:23:15;;;;;;;10.02;6.07;;;9.30;41.70;;;;;;5155242;27;20490;-48
2022/04/12 01:25:41;;;;;;;12.98;7.05;;;9.30;41.90;;;;;;5150415;27;20081;-49
2022/04/12 01:28:08;;;;;;;9.82;6.10;;;9.20;41.90;;;;;;5155754;27;20037;-53
2022/04/12 01:30:35;;;;;;;11.35;6.60;;;9.30;42.00;;;;;;5151236;27;20067;-54
2022/04/12 01:33:01;;;;;;;10.98;6.55;;;9.30;42.00;;;;;;5131532;27;20027;-49
2022/04/12 01:35:27;;;;;;;12.13;6.50;;;9.30;42.00;;;;;;5151000;27;20436;-54
2022/04/12 01:37:53;;;;;;;11.18;6.20;;;9.30;41.90;;;;;;5155049;27;20494;-52
2022/04/12 01:40:19;;;;;;;9.32;6.07;;;9.30;41.90;;;;;;5135107;27;20050;-53
2022/04/12 01:42:45;;;;;;;11.40;6.50;;;9.40;42.00;;;;;;5150346;27;20025;-51
2022/04/12 01:45:11;;;;;;;9.52;6.55;;;9.30;42.10;;;;;;5135678;27;20027;-51
2022/04/12 01:47:38;;;;;;;15.45;6.78;;;9.30;42.10;;;;;;5135416;27;20038;-52
2022/04/12 01:50:04;;;;;;;11.82;6.20;;;9.30;42.20;;;;;;5149286;27;20034;-52
2022/04/12 01:52:30;;;;;;;10.80;6.40;;;9.20;42.50;;;;;;5128544;27;20022;-53
2022/04/12 01:54:56;;;;;;;11.73;6.25;;;9.20;42.60;;;;;;5134965;27;20023;-49
2022/04/12 01:57:23;;;;;;;11.30;6.63;;;9.10;42.60;;;;;;5151934;27;20034;-54
2022/04/12 01:59:48;;;;;;;18.90;6.68;;;9.10;42.70;;;;;;5146519;27;20027;-49
2022/04/12 02:02:14;;;;;;;13.32;6.35;;;9.10;43.00;;;;;;5146872;27;20037;-52
2022/04/12 02:04:40;;;;;;;11.23;6.43;;;9.10;43.20;;;;;;5153439;27;20456;-52
2022/04/12 02:07:06;;;;;;;10.07;5.95;;;9.00;43.10;;;;;;5133658;27;20163;-52
2022/04/12 02:09:32;;;;;;;10.27;6.55;;;9.10;43.10;;;;;;5153126;27;20025;-52
2022/04/12 02:11:58;;;;;;;11.95;6.50;;;9.00;43.10;;;;;;5115758;27;20023;-53
2022/04/12 02:14:24;;;;;;;10.98;6.45;;;9.00;43.20;;;;;;5152756;27;20041;-53
2022/04/12 02:16:50;;;;;;;10.57;6.20;;;9.00;43.90;;;;;;5126962;27;20054;-52
2022/04/12 02:19:16;;;;;;;11.60;6.50;;;8.90;43.30;;;;;;5149966;27;20034;-51
2022/04/12 02:21:42;;;;;;;10.13;6.72;;;8.90;43.60;;;;;;5132671;27;20026;-49
2022/04/12 02:24:08;;;;;;;10.15;6.45;;;8.90;43.60;;;;;;5135257;27;20106;-51
2022/04/12 02:26:34;;;;;;;10.63;6.40;;;8.90;43.60;;;;;;5123955;27;20031;-52
2022/04/12 02:29:00;;;;;;;11.88;6.35;;;8.90;43.40;;;;;;5146566;27;20481;-50
2022/04/12 02:31:26;;;;;;;11.95;7.25;;;8.90;43.40;;;;;;5133994;27;20113;-57
2022/04/12 02:33:52;;;;;;;12.02;6.43;;;8.90;43.50;;;;;;5120702;27;20107;-47
2022/04/12 02:36:18;;;;;;;9.90;6.32;;;8.90;43.60;;;;;;5153694;27;20372;-49
2022/04/12 02:38:44;;;;;;;10.30;5.82;;;8.80;43.80;;;;;;5152548;27;20538;-46
2022/04/12 02:41:10;;;;;;;13.32;7.18;;;8.80;44.20;;;;;;5143826;27;20051;-50
2022/04/12 02:43:36;;;;;;;9.40;6.00;;;8.80;44.30;;;;;;5122935;27;20458;-52
2022/04/12 02:46:02;;;;;;;10.93;6.70;;;8.70;45.00;;;;;;5140881;27;20026;-54
2022/04/12 02:48:28;;;;;;;12.95;6.88;;;8.70;44.30;;;;;;5146095;27;20050;-54
2022/04/12 02:50:54;;;;;;;10.85;6.70;;;8.70;44.70;;;;;;5113565;27;20114;-52
2022/04/12 02:53:20;;;;;;;12.85;6.60;;;8.70;45.00;;;;;;5149001;27;20101;-51
2022/04/12 02:55:45;;;;;;;10.73;6.63;;;8.70;45.40;;;;;;5133534;27;20050;-49
2022/04/12 02:58:11;;;;;;;14.80;7.10;;;8.70;45.60;;;;;;5134375;27;20027;-53
2022/04/12 03:00:38;;;;;;;10.57;7.05;;;8.60;45.60;;;;;;5152883;27;20027;-51
2022/04/12 03:03:03;;;;;;;14.48;6.68;;;8.60;45.80;;;;;;5122895;27;20038;-52
2022/04/12 03:05:29;;;;;;;12.40;7.32;;;8.60;46.00;;;;;;5145378;27;20019;-48
2022/04/12 03:07:55;;;;;;;12.10;6.72;;;8.50;46.20;;;;;;5126780;27;20023;-48
2022/04/12 03:10:21;;;;;;;13.52;7.05;;;8.60;46.30;;;;;;5128270;27;20023;-49
2022/04/12 03:12:47;;;;;;;11.30;6.68;;;8.50;46.40;;;;;;5134273;27;20297;-46
2022/04/12 03:15:13;;;;;;;11.57;7.03;;;8.50;46.70;;;;;;5153874;27;20034;-54
2022/04/12 03:17:39;;;;;;;14.45;7.35;;;8.40;47.00;;;;;;5150122;27;20416;-51
2022/04/12 03:20:05;;;;;;;12.25;7.13;;;8.50;47.10;;;;;;5151976;27;20084;-46
2022/04/12 03:22:30;;;;;;;11.75;7.65;;;8.40;47.20;;;;;;5141698;27;20030;-49
2022/04/12 03:24:56;;;;;;;13.00;6.90;;;8.40;47.30;;;;;;5127018;27;20091;-49
2022/04/12 03:27:22;;;;;;;12.30;7.53;;;8.30;47.10;;;;;;5143246;27;20023;-51
2022/04/12 03:29:48;;;;;;;14.77;7.40;;;8.30;47.20;;;;;;5133721;27;20146;-51
2022/04/12 03:32:13;;;;;;;14.52;8.63;;;8.30;47.20;;;;;;5146028;27;20024;-49
2022/04/12 03:34:40;;;;;;;15.57;7.78;;;8.30;47.40;;;;;;5143929;27;20451;-49
2022/04/12 03:37:06;;;;;;;11.10;7.03;;;8.30;47.50;;;;;;5151581;27;20107;-49
2022/04/12 03:39:32;;;;;;;12.88;8.18;;;8.20;48.10;;;;;;5129143;27;20019;-54
2022/04/12 03:41:58;;;;;;;12.40;7.32;;;8.20;47.30;;;;;;5151737;27;20141;-51
2022/04/12 03:44:24;;;;;;;12.63;8.18;;;8.10;47.10;;;;;;5145803;27;20102;-48
2022/04/12 03:46:50;;;;;;;14.95;7.95;;;8.10;47.20;;;;;;5152306;27;20015;-49
2022/04/12 03:49:16;;;;;;;10.95;7.07;;;8.10;47.10;;;;;;5152597;27;20039;-53
2022/04/12 03:51:42;;;;;;;12.60;8.00;;;8.10;47.10;;;;;;5150656;27;20479;-52
2022/04/12 03:54:07;;;;;;;14.40;7.93;;;8.10;47.10;;;;;;5111878;27;20014;-51
2022/04/12 03:56:34;;;;;;;15.18;6.90;;;8.00;47.00;;;;;;5131712;27;20455;-50
2022/04/12 03:59:00;;;;;;;14.32;8.18;;;8.00;47.20;;;;;;5151845;27;20114;-50
2022/04/12 04:01:28;;;;;;;16.33;9.43;;;8.00;47.30;;;;;;5132587;27;20535;-55
2022/04/12 04:03:58;;;;;;;19.75;8.13;;;8.10;47.40;;;;;;5148839;27;20104;-48
2022/04/12 04:06:24;;;;;;;13.88;7.55;;;8.00;47.20;;;;;;5125115;28;20031;-50
2022/04/12 04:08:50;;;;;;;13.80;8.43;;;8.10;47.00;;;;;;5143545;27;20365;-49
2022/04/12 04:11:16;;;;;;;10.75;7.63;;;8.20;46.90;;;;;;5144890;27;20057;-49
2022/04/12 04:13:41;;;;;;;12.32;7.28;;;8.10;46.70;;;;;;5145758;27;20337;-46
2022/04/12 04:16:07;;;;;;;15.18;7.68;;;8.20;46.70;;;;;;5152341;27;20438;-45
2022/04/12 04:18:34;;;;;;;14.02;8.30;;;8.20;46.70;;;;;;5129401;27;20027;-48
2022/04/12 04:21:00;;;;;;;14.48;7.95;;;8.10;46.70;;;;;;5151884;27;20027;-47
2022/04/12 04:23:25;;;;;;;13.35;7.82;;;8.10;46.60;;;;;;5133302;27;20493;-52
2022/04/12 04:25:51;;;;;;;14.95;7.55;;;8.20;46.60;;;;;;5151383;27;20026;-54
2022/04/12 04:28:21;;;;;;;14.98;7.88;;;8.30;46.20;;;;;;5145266;27;20046;-53
2022/04/12 04:30:49;;;;;;;17.02;8.10;;;8.30;46.10;;;;;;5097873;27;20035;-50
2022/04/12 04:33:18;;;;;;;13.30;8.02;;;8.40;46.20;;;;;;5115883;28;20028;-52
2022/04/12 04:35:49;;;;;;;15.55;8.15;;;8.50;46.10;;;;;;5139774;27;20054;-52
2022/04/12 04:38:15;;;;;;;14.18;8.23;;;8.50;45.90;;;;;;5134031;27;20027;-47
2022/04/12 04:40:41;;;;;;;14.75;9.07;;;8.50;45.80;;;;;;5129199;27;20089;-49
2022/04/12 04:43:08;;;;;;;13.48;8.20;;;8.60;45.80;;;;;;5133951;27;20487;-50
2022/04/12 04:45:35;;;;;;;21.67;9.85;;;8.60;45.60;;;;;;5150993;27;20018;-48
2022/04/12 04:48:02;;;;;;;14.32;8.48;;;8.60;45.50;;;;;;5151760;27;20411;-50
2022/04/12 04:50:31;;;;;;;15.95;9.05;;;8.70;45.40;;;;;;5139805;27;20110;-57
2022/04/12 04:52:57;;;;;;;18.17;10.13;;;8.70;45.30;;;;;;5149137;27;20065;-54
2022/04/12 04:55:24;;;;;;;14.05;8.57;;;8.70;45.00;;;;;;5133345;27;20431;-53
2022/04/12 04:57:53;;;;;;;16.35;9.13;;;8.80;44.90;;;;;;5151310;27;20093;-52
2022/04/12 05:00:20;;;;;;;27.23;9.77;;;8.80;44.80;;;;;;5132396;27;20057;-51
2022/04/12 05:02:48;;;;;;;16.63;9.38;;;8.80;44.70;;;;;;5131239;27;20602;-48
2022/04/12 05:05:14;;;;;;;16.20;8.43;;;8.80;45.00;;;;;;5130816;27;20046;-50
2022/04/12 05:07:41;;;;;;;17.52;9.43;;;8.80;45.10;;;;;;5137147;27;20023;-52
2022/04/12 05:10:08;;;;;;;17.95;9.38;;;8.80;45.40;;;;;;5153566;27;20046;-53
2022/04/12 05:12:34;;;;;;;15.70;9.18;;;8.80;45.40;;;;;;5132544;27;20034;-50
2022/04/12 05:15:00;;;;;;;18.60;9.35;;;8.80;45.40;;;;;;5146707;27;20030;-46
2022/04/12 05:17:27;;;;;;;16.58;9.45;;;8.90;45.30;;;;;;5137172;27;20255;-49
2022/04/12 05:19:56;;;;;;;17.95;9.13;;;8.90;45.40;;;;;;5149148;27;20055;-51
2022/04/12 05:22:23;;;;;;;15.00;9.13;;;9.00;45.30;;;;;;5149393;27;20042;-51
2022/04/12 05:24:49;;;;;;;16.98;9.57;;;9.00;45.30;;;;;;5136002;27;20025;-49
2022/04/12 05:27:16;;;;;;;16.55;8.95;;;9.00;45.10;;;;;;5150242;27;20027;-50
2022/04/12 05:29:42;;;;;;;16.98;9.90;;;9.00;45.10;;;;;;5142719;27;20037;-52
2022/04/12 05:32:09;;;;;;;14.43;9.68;;;9.00;45.00;;;;;;5150574;27;20507;-49
2022/04/12 05:34:36;;;;;;;17.38;9.70;;;9.00;45.10;;;;;;5152853;27;20034;-50
2022/04/12 05:37:03;;;;;;;19.63;9.32;;;9.10;45.20;;;;;;5134414;27;20034;-49
2022/04/12 05:39:29;;;;;;;17.05;9.30;;;9.10;45.00;;;;;;5135024;27;20019;-56
2022/04/12 05:41:55;;;;;;;17.95;9.93;;;9.10;44.70;;;;;;5149758;27;20452;-50
2022/04/12 05:44:20;;;;;;;17.58;10.50;;;9.10;44.70;;;;;;5132534;27;20071;-50
2022/04/12 05:46:46;;;;;;;15.35;9.15;;;9.20;44.70;;;;;;5133299;27;20494;-52
2022/04/12 05:49:12;;;;;;;15.57;10.27;;;9.10;44.50;;;;;;5136297;27;20031;-50
2022/04/12 05:51:38;;;;;;;20.75;9.93;;;9.10;44.70;;;;;;5130519;27;20174;-50
2022/04/12 05:54:05;;;;;;;18.48;9.18;;;9.10;44.80;;;;;;5121786;27;20044;-54
2022/04/12 05:56:30;;;;;;;13.82;9.35;;;9.20;44.70;;;;;;5146825;27;20460;-54
2022/04/12 06:02:18;;;;;;;19.70;10.27;;;9.30;44.20;;;;;;5140219;27;20120;-53
2022/04/12 06:04:44;;;;;;;23.45;11.75;;;9.40;44.10;;;;;;5127620;27;20023;-50
2022/04/12 06:07:12;;;;;;;24.33;10.20;;;9.50;43.90;;;;;;5146273;27;20026;-54
2022/04/12 06:09:38;;;;;;;19.10;10.82;;;9.60;43.90;;;;;;5146671;27;20023;-46
2022/04/12 06:12:05;;;;;;;17.50;9.55;;;9.60;43.60;;;;;;5126623;27;20540;-52
2022/04/12 06:14:31;;;;;;;19.73;9.73;;;9.70;43.30;;;;;;5128453;27;20053;-54
2022/04/12 06:16:57;;;;;;;18.88;9.98;;;9.70;43.10;;;;;;5130439;27;20058;-52
2022/04/12 06:19:22;;;;;;;26.25;10.35;;;9.70;43.10;;;;;;5131868;27;20023;-53
2022/04/12 06:21:48;;;;;;;17.27;9.80;;;9.70;42.70;;;;;;5144380;27;20027;-53
2022/04/12 06:24:14;;;;;;;18.90;10.23;;;9.80;42.60;;;;;;5135360;27;20027;-49
2022/04/12 06:26:40;;;;;;;20.85;9.88;;;9.90;42.50;;;;;;5153454;27;20436;-52
2022/04/12 06:29:06;;;;;;;15.77;9.98;;;9.90;42.40;;;;;;5122119;27;20429;-53
2022/04/12 06:31:31;;;;;;;19.40;10.23;;;9.90;42.20;;;;;;5142534;27;20031;-57
2022/04/12 06:33:57;;;;;;;18.15;9.60;;;10.00;42.30;;;;;;5145409;27;20023;-53
2022/04/12 06:36:23;;;;;;;14.90;9.32;;;10.10;42.10;;;;;;5146114;27;20015;-53
2022/04/12 06:38:53;;;;;;;20.65;9.68;;;10.10;41.80;;;;;;5129009;27;20087;-53
2022/04/12 06:41:21;;;;;;;15.90;9.45;;;10.10;41.60;;;;;;5141357;27;20043;-47
2022/04/12 06:43:46;;;;;;;17.50;8.57;;;10.10;41.60;;;;;;5131396;27;20018;-50
2022/04/12 06:46:18;;;;;;;19.30;9.48;;;10.10;41.30;;;;;;5146346;27;20030;-57
2022/04/12 06:48:44;;;;;;;15.80;9.05;;;10.10;41.40;;;;;;5123900;27;20399;-53
2022/04/12 06:51:10;;;;;;;14.20;8.90;;;10.10;41.50;;;;;;5145633;27;20023;-49
2022/04/12 06:53:36;;;;;;;14.82;8.93;;;10.10;41.50;;;;;;5128166;27;20123;-51
2022/04/12 06:56:02;;;;;;;16.75;9.20;;;10.10;41.80;;;;;;5128540;27;20022;-55
2022/04/12 06:58:27;;;;;;;14.98;9.25;;;10.10;41.90;;;;;;5121222;27;20038;-50
2022/04/12 07:00:53;;;;;;;16.83;9.77;;;10.10;41.90;;;;;;5142739;27;20034;-51
2022/04/12 07:03:20;;;;;;;16.05;8.98;;;10.20;42.10;;;;;;5142695;27;20042;-52
2022/04/12 07:05:49;;;;;;;13.50;8.80;;;10.30;42.10;;;;;;5139530;27;20018;-52
2022/04/12 07:08:15;;;;;;;17.30;9.43;;;10.40;41.90;;;;;;5149595;27;20168;-52
2022/04/12 07:10:48;;;;;;;16.17;9.57;;;10.60;42.00;;;;;;5122744;27;20023;-52
2022/04/12 07:13:14;;;;;;;17.67;9.32;;;10.70;41.70;;;;;;5125788;27;20464;-60
2022/04/12 07:15:39;;;;;;;14.32;10.10;;;10.90;41.60;;;;;;5131715;27;20030;-53
2022/04/12 07:18:05;;;;;;;15.50;10.60;;;11.60;41.90;;;;;;5133346;27;20026;-53
2022/04/12 07:20:31;;;;;;;16.40;10.38;;;15.10;39.80;;;;;;5141399;27;20063;-52
2022/04/12 07:22:57;;;;;;;19.98;10.48;;;18.50;33.20;;;;;;5127856;27;20038;-51
2022/04/12 07:25:22;;;;;;;11.65;9.27;;;21.10;29.10;;;;;;5132197;27;20117;-52
2022/04/12 07:27:48;;;;;;;12.73;9.43;;;23.40;28.20;;;;;;5129965;27;20223;-51
2022/04/12 07:30:14;;;;;;;14.88;9.88;;;25.30;25.50;;;;;;5124581;27;20064;-52
2022/04/12 07:32:40;;;;;;;14.55;9.85;;;26.40;24.50;;;;;;5150185;27;20360;-51
2022/04/12 07:35:09;;;;;;;14.15;9.65;;;27.40;24.00;;;;;;5131107;27;20027;-56
2022/04/12 07:37:35;;;;;;;13.38;9.82;;;28.50;23.30;;;;;;5123984;27;20027;-58
2022/04/12 07:40:02;;;;;;;14.23;9.68;;;29.50;22.70;;;;;;5143910;27;20030;-50
2022/04/12 07:42:28;;;;;;;13.57;9.10;;;29.90;22.20;;;;;;5149395;27;20161;-51
2022/04/12 07:44:53;;;;;;;16.20;10.00;;;30.80;22.10;;;;;;5134048;27;20479;-55
2022/04/12 07:47:19;;;;;;;14.40;9.20;;;32.10;22.00;;;;;;5133428;27;20459;-51
2022/04/12 07:49:45;;;;;;;12.70;8.50;;;32.90;20.70;;;;;;5147185;27;20050;-52
2022/04/12 07:52:10;;;;;;;13.55;9.35;;;33.30;21.00;;;;;;5145204;27;20092;-52
2022/04/12 07:54:36;;;;;;;10.32;9.02;;;34.20;20.50;;;;;;5132680;27;20527;-60
2022/04/12 07:57:02;;;;;;;12.63;9.05;;;34.80;20.30;;;;;;5141602;27;20027;-52
2022/04/12 07:59:28;;;;;;;11.90;9.52;;;35.40;20.20;;;;;;5133662;27;20042;-52
2022/04/12 08:01:53;;;;;;;12.93;9.25;;;35.90;19.60;;;;;;5147308;27;20035;-51
2022/04/12 08:04:19;;;;;;;10.63;8.65;;;36.20;19.40;;;;;;5112388;28;20106;-51
2022/04/12 08:06:45;;;;;;;12.25;9.18;;;37.10;19.50;;;;;;5144353;27;20024;-53
2022/04/12 08:09:11;;;;;;;13.07;9.88;;;38.00;19.10;;;;;;5150899;27;20056;-54
2022/04/12 08:11:37;;;;;;;14.93;8.95;;;38.70;18.90;;;;;;5152290;27;20119;-53
2022/04/12 08:14:03;;;;;;;15.98;9.15;;;39.10;18.70;;;;;;5151111;27;20019;-53
2022/04/12 08:16:29;;;;;;;12.23;9.32;;;39.60;18.70;;;;;;5130616;27;20111;-52
2022/04/12 08:18:55;;;;;;;16.33;9.13;;;40.10;18.40;;;;;;5124589;27;20116;-50
2022/04/12 08:21:36;;;;;;;13.65;9.88;;;40.30;18.40;;;;;;5147291;27;20064;-50
2022/04/12 08:24:03;;;;;;;14.55;9.30;;;41.10;18.30;;;;;;5147348;27;20015;-53
2022/04/12 08:26:29;;;;;;;12.95;9.43;;;42.10;18.00;;;;;;5146417;27;20383;-50
2022/04/12 08:28:55;;;;;;;16.13;8.43;;;41.90;17.80;;;;;;5142258;27;20038;-52
2022/04/12 08:31:21;;;;;;;12.30;8.45;;;40.50;17.70;;;;;;5153010;27;20088;-53
2022/04/12 08:33:48;;;;;;;13.63;8.07;;;38.90;18.10;;;;;;5146720;27;20022;-54
2022/04/12 08:36:16;;;;;;;12.07;9.27;;;38.70;18.20;;;;;;5120922;28;20019;-55
2022/04/12 08:38:43;;;;;;;15.18;8.80;;;37.90;18.10;;;;;;5149079;27;20026;-51
2022/04/12 08:41:10;;;;;;;16.65;10.07;;;36.60;18.40;;;;;;5127191;27;20039;-53
2022/04/12 08:43:40;;;;;;;14.35;9.35;;;36.40;18.70;;;;;;5154415;27;20027;-54
2022/04/12 08:46:07;;;;;;;13.52;8.52;;;36.10;18.50;;;;;;5156679;27;20079;-53
2022/04/12 08:48:34;;;;;;;11.07;8.43;;;35.20;18.60;;;;;;5156337;27;20019;-53
2022/04/12 08:51:02;;;;;;;13.65;8.73;;;33.90;19.00;;;;;;5111942;27;20288;-52
2022/04/12 08:53:29;;;;;;;11.10;9.10;;;32.40;19.30;;;;;;5154963;27;20034;-51
2022/04/12 08:55:58;;;;;;;15.52;8.20;;;29.90;20.20;;;;;;5133659;27;20093;-53
2022/04/12 08:58:26;;;;;;;12.45;8.88;;;27.70;21.20;;;;;;5145286;27;20497;-51
2022/04/12 09:00:51;;;;;;;11.32;8.88;;;26.30;22.20;;;;;;5155713;27;20117;-51
2022/04/12 09:03:17;;;;;;;10.43;8.18;;;25.00;22.80;;;;;;5137373;27;20161;-51
2022/04/12 09:05:43;;;;;;;11.80;8.60;;;24.00;23.60;;;;;;5135006;27;20035;-48
2022/04/12 09:08:28;;;;;;;12.63;9.55;;;22.90;24.50;;;;;;5130784;27;20034;-49
2022/04/12 09:11:00;;;;;;;15.52;10.15;;;22.00;25.60;;;;;;5156031;27;20297;-51
2022/04/12 09:13:26;;;;;;;13.00;9.05;;;21.20;26.20;;;;;;5148624;27;20030;-52
2022/04/12 09:15:52;;;;;;;15.80;8.60;;;20.40;27.00;;;;;;5155360;27;20050;-54
2022/04/12 09:18:43;;;;;;;18.23;9.55;;;19.60;27.80;;;;;;5137397;27;20487;-54
2022/04/12 09:21:10;;;;;;;17.33;10.10;;;19.00;28.70;;;;;;5153224;27;20086;-55
2022/04/12 09:23:36;;;;;;;17.23;9.25;;;18.60;28.90;;;;;;5135075;27;20395;-52
2022/04/12 09:26:02;;;;;;;13.23;9.18;;;18.40;29.20;;;;;;5140396;27;20023;-53
2022/04/12 09:28:39;;;;;;;17.63;9.52;;;18.20;29.50;;;;;;5128564;27;20387;-53
2022/04/12 09:31:17;;;;;;;15.43;8.93;;;17.90;30.00;;;;;;5135836;27;20099;-55
2022/04/12 09:33:45;;;;;;;17.38;8.45;;;17.60;30.50;;;;;;5144433;27;20019;-55
2022/04/12 09:36:34;;;;;;;13.18;8.55;;;17.30;30.90;;;;;;5139464;27;20055;-56
2022/04/12 09:39:02;;;;;;;20.90;9.60;;;17.10;31.60;;;;;;5128471;27;20023;-53
2022/04/12 09:41:29;;;;;;;15.63;9.30;;;16.90;32.00;;;;;;5129680;27;20047;-53
2022/04/12 09:44:08;;;;;;;15.73;8.65;;;16.80;32.10;;;;;;5132266;27;20476;-53
2022/04/12 09:46:39;;;;;;;17.73;8.55;;;16.80;32.40;;;;;;5132881;27;20095;-56
2022/04/12 09:49:06;;;;;;;14.05;9.35;;;16.80;32.60;;;;;;5123827;27;20451;-53
2022/04/12 09:51:36;;;;;;;16.98;8.38;;;16.80;32.40;;;;;;5129847;27;20031;-57
2022/04/12 09:54:09;;;;;;;14.77;8.00;;;16.90;32.60;;;;;;5124584;27;20386;-57
2022/04/12 09:56:39;;;;;;;10.75;7.43;;;16.80;32.90;;;;;;5142555;27;20029;-53
2022/04/12 09:59:08;;;;;;;14.98;8.52;;;16.70;33.20;;;;;;5132682;27;20035;-53
2022/04/12 10:01:39;;;;;;;14.82;8.90;;;16.50;33.60;;;;;;5128509;27;20046;-54
2022/04/12 10:04:08;;;;;;;13.73;8.57;;;16.30;34.20;;;;;;5131901;27;20585;-56
2022/04/12 10:06:40;;;;;;;12.25;8.93;;;16.30;34.20;;;;;;5120051;27;20043;-54
2022/04/12 10:09:09;;;;;;;15.13;8.85;;;16.40;34.00;;;;;;5112513;27;20635;-54
2022/04/12 10:11:36;;;;;;;16.10;9.68;;;16.50;34.10;;;;;;5128988;27;20080;-55
2022/04/12 10:14:02;;;;;;;15.75;10.65;;;16.50;34.40;;;;;;5131347;27;20035;-52
2022/04/12 10:16:28;;;;;;;17.08;8.18;;;16.60;34.30;;;;;;5123757;27;20019;-52
2022/04/12 10:18:54;;;;;;;14.65;8.73;;;16.60;34.30;;;;;;5131492;27;20027;-52
2022/04/12 10:21:22;;;;;;;12.80;8.40;;;16.40;34.50;;;;;;5125172;27;20118;-53
2022/04/12 10:23:54;;;;;;;13.65;8.07;;;16.30;35.10;;;;;;5122775;27;20015;-57
2022/04/12 10:26:22;;;;;;;14.52;8.45;;;16.20;35.20;;;;;;5130663;27;20062;-51
2022/04/12 10:28:59;;;;;;;15.40;8.77;;;16.40;35.20;;;;;;5109615;27;20027;-59
2022/04/12 10:31:30;;;;;;;12.15;8.02;;;16.40;35.10;;;;;;5124641;27;20099;-51
2022/04/12 10:34:09;;;;;;;16.00;8.52;;;16.40;35.20;;;;;;5130418;27;20031;-54
2022/04/12 10:37:02;;;;;;;14.18;8.20;;;16.50;35.00;;;;;;5127982;27;20088;-52
2022/04/12 10:39:45;;;;;;;12.45;8.02;;;16.60;34.90;;;;;;5119115;27;20019;-54
2022/04/12 10:42:17;;;;;;;14.05;8.50;;;16.60;34.90;;;;;;5129218;27;20047;-51
2022/04/12 10:44:58;;;;;;;16.10;8.00;;;16.70;35.00;;;;;;5127101;27;20027;-57
2022/04/12 10:47:29;;;;;;;14.93;9.13;;;16.80;34.80;;;;;;5133004;27;20027;-57
2022/04/12 10:49:59;;;;;;;21.90;8.57;;;16.80;35.00;;;;;;5128000;27;20023;-55
2022/04/12 10:52:35;;;;;;;17.60;9.48;;;16.80;35.00;;;;;;5132082;27;20046;-50
2022/04/12 10:55:03;;;;;;;15.45;9.00;;;16.90;34.90;;;;;;5124326;27;20030;-54
2022/04/12 10:57:29;;;;;;;18.35;9.27;;;17.10;34.70;;;;;;5125335;27;20037;-54
2022/04/12 11:00:15;;;;;;;13.88;8.43;;;17.20;34.50;;;;;;5129444;27;20122;-52
2022/04/12 11:02:44;;;;;;;12.93;8.07;;;17.10;34.60;;;;;;5130539;27;20027;-53
2022/04/12 11:05:42;;;;;;;14.77;7.82;;;17.00;34.50;;;;;;5129756;27;20042;-53
2022/04/12 11:08:13;;;;;;;15.38;8.90;;;17.00;34.80;;;;;;5126878;27;20026;-53
2022/04/12 11:10:40;;;;;;;16.83;9.50;;;17.10;34.80;;;;;;5125368;27;20443;-54
2022/04/12 11:13:09;;;;;;;17.67;8.38;;;17.40;34.60;;;;;;5129262;27;20098;-56
2022/04/12 11:15:37;;;;;;;11.60;8.18;;;17.70;34.10;;;;;;5130145;27;20024;-51
2022/04/12 11:18:10;;;;;;;13.15;7.72;;;17.70;33.60;;;;;;5121861;27;20019;-51
2022/04/12 11:20:38;;;;;;;14.18;7.75;;;17.50;33.50;;;;;;5123460;27;20023;-52
2022/04/12 11:23:08;;;;;;;12.55;7.63;;;17.50;33.90;;;;;;5123122;27;20121;-54
2022/04/12 11:25:45;;;;;;;13.80;7.35;;;17.50;33.90;;;;;;5128872;27;20080;-53
2022/04/12 11:28:14;;;;;;;11.48;7.60;;;17.30;34.10;;;;;;5129625;27;20027;-54
2022/04/12 11:30:40;;;;;;;12.73;7.40;;;17.40;34.20;;;;;;5129208;27;20034;-54
2022/04/12 11:33:08;;;;;;;14.75;7.70;;;17.30;34.20;;;;;;5130608;27;20054;-55
2022/04/12 11:35:36;;;;;;;14.90;7.60;;;17.40;34.20;;;;;;5129348;27;20540;-51
2022/04/12 11:38:05;;;;;;;11.85;7.40;;;17.50;34.10;;;;;;5126218;27;20055;-55
2022/04/12 11:40:31;;;;;;;14.35;7.45;;;17.50;34.10;;;;;;5135294;27;20053;-52
2022/04/12 11:42:57;;;;;;;12.80;7.00;;;17.60;34.10;;;;;;5132360;27;20034;-51
2022/04/12 11:45:33;;;;;;;12.55;7.47;;;17.60;34.10;;;;;;5131849;27;20382;-59
2022/04/12 11:47:59;;;;;;;14.13;8.00;;;17.70;33.80;;;;;;5149382;27;20023;-58
2022/04/12 11:50:25;;;;;;;21.85;8.70;;;17.80;33.90;;;;;;5128489;27;20050;-54
2022/04/12 11:52:51;;;;;;;15.25;9.45;;;18.00;33.70;;;;;;5132391;27;20023;-53
2022/04/12 11:55:17;;;;;;;16.50;8.00;;;18.20;33.30;;;;;;5126890;27;20122;-52
2022/04/12 11:57:42;;;;;;;16.20;7.95;;;18.30;33.10;;;;;;5143818;27;20080;-52
2022/04/12 12:00:09;;;;;;;16.30;7.57;;;18.30;33.00;;;;;;5144153;27;20018;-55
2022/04/12 12:02:37;;;;;;;13.30;8.05;;;18.20;33.10;;;;;;5148603;27;20027;-50
2022/04/12 12:05:08;;;;;;;12.73;8.10;;;18.20;32.90;;;;;;5129725;27;20451;-53
2022/04/12 12:07:36;;;;;;;15.15;7.75;;;18.40;32.70;;;;;;5127903;27;20066;-54
2022/04/12 12:10:09;;;;;;;14.63;8.00;;;18.30;32.40;;;;;;5152310;27;20043;-50
2022/04/12 12:12:52;;;;;;;17.87;7.67;;;18.30;32.30;;;;;;5142421;27;20030;-54
2022/04/12 12:15:22;;;;;;;17.17;8.45;;;18.30;32.30;;;;;;5155223;27;20252;-53
2022/04/12 12:17:50;;;;;;;14.00;8.05;;;18.20;32.40;;;;;;5138031;27;20094;-56
2022/04/12 12:20:17;;;;;;;17.35;8.57;;;18.20;32.50;;;;;;5117438;27;20675;-54
2022/04/12 12:22:45;;;;;;;17.38;8.45;;;18.40;32.60;;;;;;5136559;27;20023;-54
2022/04/12 12:25:18;;;;;;;16.25;8.52;;;18.70;32.30;;;;;;5147022;27;20068;-52
2022/04/12 12:27:49;;;;;;;12.57;8.35;;;18.80;31.90;;;;;;5149782;27;20045;-52
2022/04/12 12:30:19;;;;;;;15.05;8.55;;;18.70;31.70;;;;;;5135750;27;20034;-49
2022/04/12 12:32:45;;;;;;;15.32;8.35;;;18.80;31.50;;;;;;5151340;27;20027;-49
2022/04/12 12:35:13;;;;;;;11.73;7.80;;;18.70;31.20;;;;;;5155672;27;20114;-49
2022/04/12 12:37:40;;;;;;;16.77;8.45;;;18.70;31.40;;;;;;5117751;27;20136;-52
2022/04/12 12:40:23;;;;;;;12.20;8.52;;;18.80;31.20;;;;;;5136052;27;20052;-51
2022/04/12 12:42:51;;;;;;;13.57;8.40;;;18.70;30.90;;;;;;5127389;27;20026;-53
2022/04/12 12:45:19;;;;;;;18.10;9.50;;;18.70;31.20;;;;;;5127896;27;20329;-52
2022/04/12 12:47:54;;;;;;;16.38;9.45;;;18.90;31.30;;;;;;5126633;27;20022;-55
2022/04/12 12:50:22;;;;;;;19.10;9.20;;;19.10;31.30;;;;;;5131937;27;20421;-49
2022/04/12 12:52:53;;;;;;;16.77;8.35;;;19.20;31.00;;;;;;5110510;27;20030;-52